sensor_id;sensor_type;location;lat;lon;timestamp;P1;durP1;ratioP1;P2;durP2;ratioP2
22652;SDS011;11493;43.344;26.226;2023-02-24T00:01:37;14.45;;;4.53;;
22652;SDS011;11493;43.344;26.226;2023-02-24T00:04:10;24.38;;;6.38;;
22652;SDS011;11493;43.344;26.226;2023-02-24T00:06:39;20.55;;;6.47;;
22652;SDS011;11493;43.344;26.226;2023-02-24T00:09:10;13.85;;;5.65;;
22652;SDS011;11493;43.344;26.226;2023-02-24T00:11:40;29.15;;;7.32;;
22652;SDS011;11493;43.344;26.226;2023-02-24T00:14:11;19.65;;;6.68;;
22652;SDS011;11493;43.344;26.226;2023-02-24T00:16:44;22.83;;;8.60;;
22652;SDS011;11493;43.344;26.226;2023-02-24T00:19:14;31.90;;;9.88;;
22652;SDS011;11493;43.344;26.226;2023-02-24T00:21:43;28.38;;;9.55;;
22652;SDS011;11493;43.344;26.226;2023-02-24T00:24:11;20.83;;;6.40;;
22652;SDS011;11493;43.344;26.226;2023-02-24T00:26:38;26.20;;;6.22;;
22652;SDS011;11493;43.344;26.226;2023-02-24T00:29:07;18.92;;;7.78;;
22652;SDS011;11493;43.344;26.226;2023-02-24T00:31:36;19.30;;;5.55;;
22652;SDS011;11493;43.344;26.226;2023-02-24T00:34:07;12.35;;;4.85;;
22652;SDS011;11493;43.344;26.226;2023-02-24T00:36:35;10.15;;;3.88;;
22652;SDS011;11493;43.344;26.226;2023-02-24T00:39:03;14.82;;;4.57;;
22652;SDS011;11493;43.344;26.226;2023-02-24T00:41:38;12.68;;;4.78;;
22652;SDS011;11493;43.344;26.226;2023-02-24T00:44:09;12.85;;;4.30;;
22652;SDS011;11493;43.344;26.226;2023-02-24T00:49:08;17.42;;;5.93;;
22652;SDS011;11493;43.344;26.226;2023-02-24T00:51:47;18.77;;;5.88;;
22652;SDS011;11493;43.344;26.226;2023-02-24T00:54:15;11.75;;;4.05;;
22652;SDS011;11493;43.344;26.226;2023-02-24T00:56:43;12.15;;;4.72;;
22652;SDS011;11493;43.344;26.226;2023-02-24T00:59:14;10.75;;;4.15;;
22652;SDS011;11493;43.344;26.226;2023-02-24T01:01:44;17.40;;;4.38;;
22652;SDS011;11493;43.344;26.226;2023-02-24T01:04:11;11.52;;;3.88;;
22652;SDS011;11493;43.344;26.226;2023-02-24T01:06:43;9.60;;;2.95;;
22652;SDS011;11493;43.344;26.226;2023-02-24T01:09:13;10.10;;;3.42;;
22652;SDS011;11493;43.344;26.226;2023-02-24T01:11:43;12.07;;;3.75;;
22652;SDS011;11493;43.344;26.226;2023-02-24T01:14:30;12.95;;;3.28;;
22652;SDS011;11493;43.344;26.226;2023-02-24T01:17:00;8.38;;;3.45;;
22652;SDS011;11493;43.344;26.226;2023-02-24T01:19:28;9.43;;;4.50;;
22652;SDS011;11493;43.344;26.226;2023-02-24T01:22:00;8.27;;;3.33;;
22652;SDS011;11493;43.344;26.226;2023-02-24T01:24:35;13.05;;;3.78;;
22652;SDS011;11493;43.344;26.226;2023-02-24T01:27:05;13.48;;;3.60;;
22652;SDS011;11493;43.344;26.226;2023-02-24T01:29:34;9.35;;;3.95;;
22652;SDS011;11493;43.344;26.226;2023-02-24T01:32:20;11.57;;;3.83;;
22652;SDS011;11493;43.344;26.226;2023-02-24T01:34:51;11.88;;;5.32;;
22652;SDS011;11493;43.344;26.226;2023-02-24T01:37:19;11.35;;;4.70;;
22652;SDS011;11493;43.344;26.226;2023-02-24T01:39:47;15.23;;;4.28;;
22652;SDS011;11493;43.344;26.226;2023-02-24T01:42:15;12.20;;;4.25;;
22652;SDS011;11493;43.344;26.226;2023-02-24T01:47:12;6.78;;;3.88;;
22652;SDS011;11493;43.344;26.226;2023-02-24T01:49:43;12.73;;;3.43;;
22652;SDS011;11493;43.344;26.226;2023-02-24T01:55:07;7.75;;;3.70;;
22652;SDS011;11493;43.344;26.226;2023-02-24T01:57:37;10.23;;;3.88;;
22652;SDS011;11493;43.344;26.226;2023-02-24T02:00:06;11.98;;;4.28;;
22652;SDS011;11493;43.344;26.226;2023-02-24T02:02:40;14.30;;;3.70;;
22652;SDS011;11493;43.344;26.226;2023-02-24T02:05:12;12.18;;;4.03;;
22652;SDS011;11493;43.344;26.226;2023-02-24T02:07:40;7.72;;;3.53;;
22652;SDS011;11493;43.344;26.226;2023-02-24T02:10:07;11.55;;;3.67;;
22652;SDS011;11493;43.344;26.226;2023-02-24T02:12:35;4.45;;;2.83;;
22652;SDS011;11493;43.344;26.226;2023-02-24T02:15:14;9.73;;;3.22;;
22652;SDS011;11493;43.344;26.226;2023-02-24T02:21:11;13.48;;;3.25;;
22652;SDS011;11493;43.344;26.226;2023-02-24T02:35:43;8.73;;;3.30;;
22652;SDS011;11493;43.344;26.226;2023-02-24T02:38:34;8.25;;;3.55;;
22652;SDS011;11493;43.344;26.226;2023-02-24T02:41:22;9.30;;;3.05;;
22652;SDS011;11493;43.344;26.226;2023-02-24T02:44:07;8.85;;;3.85;;
22652;SDS011;11493;43.344;26.226;2023-02-24T02:47:04;4.15;;;2.72;;
22652;SDS011;11493;43.344;26.226;2023-02-24T02:49:44;12.25;;;3.58;;
22652;SDS011;11493;43.344;26.226;2023-02-24T02:52:40;6.72;;;3.42;;
22652;SDS011;11493;43.344;26.226;2023-02-24T02:55:17;10.73;;;3.72;;
22652;SDS011;11493;43.344;26.226;2023-02-24T02:58:02;7.65;;;3.45;;
22652;SDS011;11493;43.344;26.226;2023-02-24T03:00:39;13.00;;;3.88;;
22652;SDS011;11493;43.344;26.226;2023-02-24T03:03:33;8.40;;;3.17;;
22652;SDS011;11493;43.344;26.226;2023-02-24T03:06:05;11.30;;;4.20;;
22652;SDS011;11493;43.344;26.226;2023-02-24T03:08:38;11.95;;;3.40;;
22652;SDS011;11493;43.344;26.226;2023-02-24T03:11:11;18.10;;;3.97;;
22652;SDS011;11493;43.344;26.226;2023-02-24T03:13:44;13.25;;;4.18;;
22652;SDS011;11493;43.344;26.226;2023-02-24T03:16:17;19.13;;;4.47;;
22652;SDS011;11493;43.344;26.226;2023-02-24T03:18:48;10.10;;;4.13;;
22652;SDS011;11493;43.344;26.226;2023-02-24T03:21:32;20.15;;;4.78;;
22652;SDS011;11493;43.344;26.226;2023-02-24T03:24:13;10.43;;;4.57;;
22652;SDS011;11493;43.344;26.226;2023-02-24T03:26:48;21.70;;;5.90;;
22652;SDS011;11493;43.344;26.226;2023-02-24T03:29:44;15.32;;;5.38;;
22652;SDS011;11493;43.344;26.226;2023-02-24T03:32:31;11.40;;;4.78;;
22652;SDS011;11493;43.344;26.226;2023-02-24T03:37:51;11.38;;;4.78;;
22652;SDS011;11493;43.344;26.226;2023-02-24T03:40:21;15.57;;;4.57;;
22652;SDS011;11493;43.344;26.226;2023-02-24T03:43:02;10.65;;;4.60;;
22652;SDS011;11493;43.344;26.226;2023-02-24T03:45:34;20.75;;;4.45;;
22652;SDS011;11493;43.344;26.226;2023-02-24T03:48:04;19.90;;;5.33;;
22652;SDS011;11493;43.344;26.226;2023-02-24T03:50:33;17.58;;;5.35;;
22652;SDS011;11493;43.344;26.226;2023-02-24T03:59:16;7.53;;;3.92;;
22652;SDS011;11493;43.344;26.226;2023-02-24T04:01:51;10.07;;;4.38;;
22652;SDS011;11493;43.344;26.226;2023-02-24T04:04:42;9.15;;;3.72;;
22652;SDS011;11493;43.344;26.226;2023-02-24T04:11:00;18.05;;;3.80;;
22652;SDS011;11493;43.344;26.226;2023-02-24T04:13:56;12.88;;;5.25;;
22652;SDS011;11493;43.344;26.226;2023-02-24T04:16:42;13.50;;;5.55;;
22652;SDS011;11493;43.344;26.226;2023-02-24T04:19:19;15.30;;;5.13;;
22652;SDS011;11493;43.344;26.226;2023-02-24T04:24:23;11.60;;;5.25;;
22652;SDS011;11493;43.344;26.226;2023-02-24T04:26:56;14.63;;;4.75;;
22652;SDS011;11493;43.344;26.226;2023-02-24T04:29:32;10.13;;;4.72;;
22652;SDS011;11493;43.344;26.226;2023-02-24T04:32:04;12.10;;;4.40;;
22652;SDS011;11493;43.344;26.226;2023-02-24T04:34:33;18.58;;;6.00;;
22652;SDS011;11493;43.344;26.226;2023-02-24T04:37:01;13.45;;;5.88;;
22652;SDS011;11493;43.344;26.226;2023-02-24T04:39:28;31.63;;;9.30;;
22652;SDS011;11493;43.344;26.226;2023-02-24T04:41:58;22.83;;;7.75;;
22652;SDS011;11493;43.344;26.226;2023-02-24T04:44:27;25.88;;;5.72;;
22652;SDS011;11493;43.344;26.226;2023-02-24T04:46:54;11.75;;;4.95;;
22652;SDS011;11493;43.344;26.226;2023-02-24T04:49:21;16.20;;;4.75;;
22652;SDS011;11493;43.344;26.226;2023-02-24T04:51:49;9.20;;;4.20;;
22652;SDS011;11493;43.344;26.226;2023-02-24T04:54:17;18.52;;;5.05;;
22652;SDS011;11493;43.344;26.226;2023-02-24T04:56:46;15.98;;;5.22;;
22652;SDS011;11493;43.344;26.226;2023-02-24T04:59:16;16.67;;;6.32;;
22652;SDS011;11493;43.344;26.226;2023-02-24T05:01:45;20.08;;;6.25;;
22652;SDS011;11493;43.344;26.226;2023-02-24T05:04:13;14.90;;;6.22;;
22652;SDS011;11493;43.344;26.226;2023-02-24T05:06:40;16.48;;;6.25;;
22652;SDS011;11493;43.344;26.226;2023-02-24T05:09:10;17.50;;;5.95;;
22652;SDS011;11493;43.344;26.226;2023-02-24T05:11:43;18.40;;;5.88;;
22652;SDS011;11493;43.344;26.226;2023-02-24T05:14:11;14.05;;;5.88;;
22652;SDS011;11493;43.344;26.226;2023-02-24T05:16:42;19.00;;;6.43;;
22652;SDS011;11493;43.344;26.226;2023-02-24T05:19:15;19.63;;;7.05;;
22652;SDS011;11493;43.344;26.226;2023-02-24T05:22:02;23.48;;;6.80;;
22652;SDS011;11493;43.344;26.226;2023-02-24T05:24:32;17.13;;;6.50;;
22652;SDS011;11493;43.344;26.226;2023-02-24T05:27:00;19.80;;;6.97;;
22652;SDS011;11493;43.344;26.226;2023-02-24T05:29:33;59.65;;;31.63;;
22652;SDS011;11493;43.344;26.226;2023-02-24T05:32:01;44.35;;;24.17;;
22652;SDS011;11493;43.344;26.226;2023-02-24T05:34:33;40.35;;;16.20;;
22652;SDS011;11493;43.344;26.226;2023-02-24T05:37:01;22.30;;;13.30;;
22652;SDS011;11493;43.344;26.226;2023-02-24T05:39:35;26.17;;;12.25;;
22652;SDS011;11493;43.344;26.226;2023-02-24T05:42:03;24.55;;;11.63;;
22652;SDS011;11493;43.344;26.226;2023-02-24T05:44:32;29.75;;;11.77;;
22652;SDS011;11493;43.344;26.226;2023-02-24T05:47:01;27.55;;;13.32;;
22652;SDS011;11493;43.344;26.226;2023-02-24T05:49:32;38.28;;;14.73;;
22652;SDS011;11493;43.344;26.226;2023-02-24T05:52:01;35.20;;;16.45;;
22652;SDS011;11493;43.344;26.226;2023-02-24T05:54:34;39.90;;;14.20;;
22652;SDS011;11493;43.344;26.226;2023-02-24T05:57:15;37.97;;;15.52;;
22652;SDS011;11493;43.344;26.226;2023-02-24T05:59:49;57.97;;;26.95;;
22652;SDS011;11493;43.344;26.226;2023-02-24T06:02:18;36.72;;;12.48;;
22652;SDS011;11493;43.344;26.226;2023-02-24T06:04:53;15.77;;;7.57;;
22652;SDS011;11493;43.344;26.226;2023-02-24T06:07:22;15.57;;;5.97;;
22652;SDS011;11493;43.344;26.226;2023-02-24T06:09:51;22.88;;;7.82;;
22652;SDS011;11493;43.344;26.226;2023-02-24T06:12:23;16.35;;;7.82;;
22652;SDS011;11493;43.344;26.226;2023-02-24T06:14:52;31.55;;;9.80;;
22652;SDS011;11493;43.344;26.226;2023-02-24T06:17:19;28.92;;;12.65;;
22652;SDS011;11493;43.344;26.226;2023-02-24T06:19:49;20.58;;;11.43;;
22652;SDS011;11493;43.344;26.226;2023-02-24T06:22:18;24.98;;;9.60;;
22652;SDS011;11493;43.344;26.226;2023-02-24T06:24:47;26.23;;;8.25;;
22652;SDS011;11493;43.344;26.226;2023-02-24T06:27:18;24.20;;;6.97;;
22652;SDS011;11493;43.344;26.226;2023-02-24T06:29:48;20.95;;;6.30;;
22652;SDS011;11493;43.344;26.226;2023-02-24T06:32:16;18.98;;;6.43;;
22652;SDS011;11493;43.344;26.226;2023-02-24T06:34:45;20.20;;;8.02;;
22652;SDS011;11493;43.344;26.226;2023-02-24T06:37:13;22.58;;;9.52;;
22652;SDS011;11493;43.344;26.226;2023-02-24T06:39:41;22.42;;;10.35;;
22652;SDS011;11493;43.344;26.226;2023-02-24T06:42:09;23.95;;;9.55;;
22652;SDS011;11493;43.344;26.226;2023-02-24T06:44:38;23.27;;;9.13;;
22652;SDS011;11493;43.344;26.226;2023-02-24T06:47:06;18.88;;;8.38;;
22652;SDS011;11493;43.344;26.226;2023-02-24T06:49:36;31.60;;;9.45;;
22652;SDS011;11493;43.344;26.226;2023-02-24T06:52:04;30.33;;;11.68;;
22652;SDS011;11493;43.344;26.226;2023-02-24T06:54:31;31.00;;;15.25;;
22652;SDS011;11493;43.344;26.226;2023-02-24T06:57:02;21.48;;;11.07;;
22652;SDS011;11493;43.344;26.226;2023-02-24T06:59:30;22.02;;;9.75;;
22652;SDS011;11493;43.344;26.226;2023-02-24T07:01:58;29.23;;;11.38;;
22652;SDS011;11493;43.344;26.226;2023-02-24T07:04:27;20.70;;;10.07;;
22652;SDS011;11493;43.344;26.226;2023-02-24T07:06:56;21.27;;;10.13;;
22652;SDS011;11493;43.344;26.226;2023-02-24T07:09:28;23.98;;;10.70;;
22652;SDS011;11493;43.344;26.226;2023-02-24T07:11:57;27.20;;;11.60;;
22652;SDS011;11493;43.344;26.226;2023-02-24T07:16:57;38.63;;;14.02;;
22652;SDS011;11493;43.344;26.226;2023-02-24T07:19:30;45.50;;;19.92;;
22652;SDS011;11493;43.344;26.226;2023-02-24T07:21:59;37.10;;;18.48;;
22652;SDS011;11493;43.344;26.226;2023-02-24T07:24:29;46.92;;;19.92;;
22652;SDS011;11493;43.344;26.226;2023-02-24T07:27:13;45.20;;;19.48;;
22652;SDS011;11493;43.344;26.226;2023-02-24T07:29:53;29.13;;;11.93;;
22652;SDS011;11493;43.344;26.226;2023-02-24T07:32:21;21.98;;;8.13;;
22652;SDS011;11493;43.344;26.226;2023-02-24T07:34:48;25.60;;;9.65;;
22652;SDS011;11493;43.344;26.226;2023-02-24T07:37:15;20.35;;;9.20;;
22652;SDS011;11493;43.344;26.226;2023-02-24T07:39:42;18.77;;;6.75;;
22652;SDS011;11493;43.344;26.226;2023-02-24T07:42:10;17.95;;;6.88;;
22652;SDS011;11493;43.344;26.226;2023-02-24T07:44:42;16.80;;;7.07;;
22652;SDS011;11493;43.344;26.226;2023-02-24T07:47:12;15.27;;;7.00;;
22652;SDS011;11493;43.344;26.226;2023-02-24T07:49:41;21.40;;;7.63;;
22652;SDS011;11493;43.344;26.226;2023-02-24T07:52:09;24.75;;;8.52;;
22652;SDS011;11493;43.344;26.226;2023-02-24T07:54:37;24.85;;;10.15;;
22652;SDS011;11493;43.344;26.226;2023-02-24T07:57:04;22.92;;;10.02;;
22652;SDS011;11493;43.344;26.226;2023-02-24T07:59:32;27.85;;;9.40;;
22652;SDS011;11493;43.344;26.226;2023-02-24T08:02:02;19.58;;;7.40;;
22652;SDS011;11493;43.344;26.226;2023-02-24T08:04:33;23.67;;;7.35;;
22652;SDS011;11493;43.344;26.226;2023-02-24T08:07:02;16.33;;;7.80;;
22652;SDS011;11493;43.344;26.226;2023-02-24T08:09:30;17.55;;;7.28;;
22652;SDS011;11493;43.344;26.226;2023-02-24T08:12:22;13.98;;;6.03;;
22652;SDS011;11493;43.344;26.226;2023-02-24T08:14:49;16.63;;;6.85;;
22652;SDS011;11493;43.344;26.226;2023-02-24T08:17:19;24.17;;;9.13;;
22652;SDS011;11493;43.344;26.226;2023-02-24T08:19:49;14.88;;;6.95;;
22652;SDS011;11493;43.344;26.226;2023-02-24T08:22:34;19.50;;;7.57;;
22652;SDS011;11493;43.344;26.226;2023-02-24T08:25:03;16.63;;;7.25;;
22652;SDS011;11493;43.344;26.226;2023-02-24T08:27:34;12.38;;;5.78;;
22652;SDS011;11493;43.344;26.226;2023-02-24T08:30:08;21.90;;;7.78;;
22652;SDS011;11493;43.344;26.226;2023-02-24T08:32:51;13.57;;;6.78;;
22652;SDS011;11493;43.344;26.226;2023-02-24T08:35:24;13.73;;;6.70;;
22652;SDS011;11493;43.344;26.226;2023-02-24T08:38:02;10.55;;;6.97;;
22652;SDS011;11493;43.344;26.226;2023-02-24T08:40:34;19.65;;;8.18;;
22652;SDS011;11493;43.344;26.226;2023-02-24T08:43:05;24.67;;;9.70;;
22652;SDS011;11493;43.344;26.226;2023-02-24T08:48:48;13.57;;;6.88;;
22652;SDS011;11493;43.344;26.226;2023-02-24T08:51:28;26.08;;;8.00;;
22652;SDS011;11493;43.344;26.226;2023-02-24T08:54:01;14.85;;;6.55;;
22652;SDS011;11493;43.344;26.226;2023-02-24T08:56:37;17.02;;;7.10;;
22652;SDS011;11493;43.344;26.226;2023-02-24T08:59:10;17.13;;;7.45;;
22652;SDS011;11493;43.344;26.226;2023-02-24T09:01:55;13.57;;;6.85;;
22652;SDS011;11493;43.344;26.226;2023-02-24T09:04:48;15.45;;;6.35;;
22652;SDS011;11493;43.344;26.226;2023-02-24T09:07:27;16.77;;;7.20;;
22652;SDS011;11493;43.344;26.226;2023-02-24T09:10:02;21.08;;;7.18;;
22652;SDS011;11493;43.344;26.226;2023-02-24T09:12:37;15.70;;;7.38;;
22652;SDS011;11493;43.344;26.226;2023-02-24T09:15:08;22.13;;;8.23;;
22652;SDS011;11493;43.344;26.226;2023-02-24T09:17:35;23.00;;;11.48;;
22652;SDS011;11493;43.344;26.226;2023-02-24T09:20:07;22.25;;;8.93;;
22652;SDS011;11493;43.344;26.226;2023-02-24T09:23:11;31.23;;;8.48;;
22652;SDS011;11493;43.344;26.226;2023-02-24T09:25:46;17.15;;;7.00;;
22652;SDS011;11493;43.344;26.226;2023-02-24T09:28:20;23.00;;;12.73;;
22652;SDS011;11493;43.344;26.226;2023-02-24T09:30:56;25.05;;;12.70;;
22652;SDS011;11493;43.344;26.226;2023-02-24T09:33:26;26.77;;;11.13;;
22652;SDS011;11493;43.344;26.226;2023-02-24T09:38:40;29.27;;;11.05;;
22652;SDS011;11493;43.344;26.226;2023-02-24T09:44:27;22.33;;;13.23;;
22652;SDS011;11493;43.344;26.226;2023-02-24T09:52:39;25.10;;;11.88;;
22652;SDS011;11493;43.344;26.226;2023-02-24T10:04:26;31.45;;;14.07;;
22652;SDS011;11493;43.344;26.226;2023-02-24T10:12:15;25.05;;;13.10;;
22652;SDS011;11493;43.344;26.226;2023-02-24T10:14:56;27.65;;;15.27;;
22652;SDS011;11493;43.344;26.226;2023-02-24T10:17:59;22.77;;;12.52;;
22652;SDS011;11493;43.344;26.226;2023-02-24T10:20:41;20.27;;;12.75;;
22652;SDS011;11493;43.344;26.226;2023-02-24T10:25:45;18.65;;;10.65;;
22652;SDS011;11493;43.344;26.226;2023-02-24T10:28:28;19.23;;;10.93;;
22652;SDS011;11493;43.344;26.226;2023-02-24T10:31:12;21.98;;;10.82;;
22652;SDS011;11493;43.344;26.226;2023-02-24T10:33:59;24.47;;;13.60;;
22652;SDS011;11493;43.344;26.226;2023-02-24T10:36:32;28.92;;;14.77;;
22652;SDS011;11493;43.344;26.226;2023-02-24T10:39:19;27.77;;;14.23;;
22652;SDS011;11493;43.344;26.226;2023-02-24T10:41:53;28.70;;;16.17;;
22652;SDS011;11493;43.344;26.226;2023-02-24T10:44:27;25.25;;;12.70;;
22652;SDS011;11493;43.344;26.226;2023-02-24T10:47:04;25.35;;;13.02;;
22652;SDS011;11493;43.344;26.226;2023-02-24T10:49:43;24.17;;;13.82;;
22652;SDS011;11493;43.344;26.226;2023-02-24T10:52:25;30.42;;;14.00;;
22652;SDS011;11493;43.344;26.226;2023-02-24T10:55:26;27.25;;;13.90;;
22652;SDS011;11493;43.344;26.226;2023-02-24T11:01:10;43.10;;;23.83;;
22652;SDS011;11493;43.344;26.226;2023-02-24T11:04:13;24.90;;;14.02;;
22652;SDS011;11493;43.344;26.226;2023-02-24T11:07:05;24.08;;;15.10;;
22652;SDS011;11493;43.344;26.226;2023-02-24T11:09:38;36.97;;;19.13;;
22652;SDS011;11493;43.344;26.226;2023-02-24T11:12:24;37.75;;;18.58;;
22652;SDS011;11493;43.344;26.226;2023-02-24T11:18:15;34.97;;;16.65;;
22652;SDS011;11493;43.344;26.226;2023-02-24T11:20:47;26.63;;;14.32;;
22652;SDS011;11493;43.344;26.226;2023-02-24T11:23:21;34.97;;;18.13;;
22652;SDS011;11493;43.344;26.226;2023-02-24T11:25:51;38.45;;;18.02;;
22652;SDS011;11493;43.344;26.226;2023-02-24T11:34:17;27.05;;;12.85;;
22652;SDS011;11493;43.344;26.226;2023-02-24T11:40:19;26.52;;;14.00;;
22652;SDS011;11493;43.344;26.226;2023-02-24T11:48:09;35.15;;;18.45;;
22652;SDS011;11493;43.344;26.226;2023-02-24T11:56:24;21.65;;;12.65;;
22652;SDS011;11493;43.344;26.226;2023-02-24T11:59:03;28.67;;;13.43;;
22652;SDS011;11493;43.344;26.226;2023-02-24T12:10:37;28.63;;;14.07;;
22652;SDS011;11493;43.344;26.226;2023-02-24T12:12:53;27.98;;;14.30;;
22652;SDS011;11493;43.344;26.226;2023-02-24T12:15:41;31.05;;;15.95;;
22652;SDS011;11493;43.344;26.226;2023-02-24T12:18:18;20.52;;;14.35;;
22652;SDS011;11493;43.344;26.226;2023-02-24T12:20:50;30.58;;;15.65;;
22652;SDS011;11493;43.344;26.226;2023-02-24T12:23:32;27.02;;;15.82;;
22652;SDS011;11493;43.344;26.226;2023-02-24T12:42:45;34.95;;;16.92;;
22652;SDS011;11493;43.344;26.226;2023-02-24T12:54:50;28.48;;;12.88;;
22652;SDS011;11493;43.344;26.226;2023-02-24T13:00:13;33.55;;;14.55;;
22652;SDS011;11493;43.344;26.226;2023-02-24T13:02:55;27.02;;;14.18;;
22652;SDS011;11493;43.344;26.226;2023-02-24T13:05:36;28.67;;;14.77;;
22652;SDS011;11493;43.344;26.226;2023-02-24T13:08:27;28.05;;;12.55;;
22652;SDS011;11493;43.344;26.226;2023-02-24T13:14:05;23.25;;;13.35;;
22652;SDS011;11493;43.344;26.226;2023-02-24T13:17:15;21.58;;;12.88;;
22652;SDS011;11493;43.344;26.226;2023-02-24T13:19:43;28.20;;;14.25;;
22652;SDS011;11493;43.344;26.226;2023-02-24T13:24:38;29.42;;;15.35;;
22652;SDS011;11493;43.344;26.226;2023-02-24T13:27:20;27.88;;;14.50;;
22652;SDS011;11493;43.344;26.226;2023-02-24T13:32:28;26.65;;;15.23;;
22652;SDS011;11493;43.344;26.226;2023-02-24T13:37:42;26.85;;;14.63;;
22652;SDS011;11493;43.344;26.226;2023-02-24T13:40:32;23.58;;;14.63;;
22652;SDS011;11493;43.344;26.226;2023-02-24T13:42:59;28.65;;;14.80;;
22652;SDS011;11493;43.344;26.226;2023-02-24T13:58:31;30.88;;;18.80;;
22652;SDS011;11493;43.344;26.226;2023-02-24T14:01:47;29.27;;;18.00;;
22652;SDS011;11493;43.344;26.226;2023-02-24T14:04:26;31.63;;;17.67;;
22652;SDS011;11493;43.344;26.226;2023-02-24T14:06:58;34.72;;;17.88;;
22652;SDS011;11493;43.344;26.226;2023-02-24T14:09:32;29.75;;;18.17;;
22652;SDS011;11493;43.344;26.226;2023-02-24T14:12:06;54.00;;;30.98;;
22652;SDS011;11493;43.344;26.226;2023-02-24T14:14:41;31.25;;;19.48;;
22652;SDS011;11493;43.344;26.226;2023-02-24T14:17:20;32.83;;;17.15;;
22652;SDS011;11493;43.344;26.226;2023-02-24T14:19:51;33.40;;;19.30;;
22652;SDS011;11493;43.344;26.226;2023-02-24T14:22:20;35.20;;;19.20;;
22652;SDS011;11493;43.344;26.226;2023-02-24T14:24:47;30.92;;;19.63;;
22652;SDS011;11493;43.344;26.226;2023-02-24T14:27:21;29.58;;;18.05;;
22652;SDS011;11493;43.344;26.226;2023-02-24T14:29:51;32.55;;;18.95;;
22652;SDS011;11493;43.344;26.226;2023-02-24T14:32:20;41.20;;;24.55;;
22652;SDS011;11493;43.344;26.226;2023-02-24T14:34:49;37.30;;;21.35;;
22652;SDS011;11493;43.344;26.226;2023-02-24T14:37:21;26.90;;;14.63;;
22652;SDS011;11493;43.344;26.226;2023-02-24T14:42:24;29.33;;;16.48;;
22652;SDS011;11493;43.344;26.226;2023-02-24T14:44:56;36.60;;;18.38;;
22652;SDS011;11493;43.344;26.226;2023-02-24T14:57:38;29.55;;;16.23;;
22652;SDS011;11493;43.344;26.226;2023-02-24T15:00:14;23.85;;;15.05;;
22652;SDS011;11493;43.344;26.226;2023-02-24T15:02:52;29.92;;;16.77;;
22652;SDS011;11493;43.344;26.226;2023-02-24T15:05:40;31.20;;;17.50;;
22652;SDS011;11493;43.344;26.226;2023-02-24T15:10:54;81.15;;;37.60;;
22652;SDS011;11493;43.344;26.226;2023-02-24T15:13:27;68.80;;;31.70;;
22652;SDS011;11493;43.344;26.226;2023-02-24T15:16:19;92.45;;;43.97;;
22652;SDS011;11493;43.344;26.226;2023-02-24T15:19:39;40.70;;;20.67;;
22652;SDS011;11493;43.344;26.226;2023-02-24T15:22:46;80.07;;;50.78;;
22652;SDS011;11493;43.344;26.226;2023-02-24T15:25:18;47.38;;;27.67;;
22652;SDS011;11493;43.344;26.226;2023-02-24T15:28:00;62.38;;;34.83;;
22652;SDS011;11493;43.344;26.226;2023-02-24T15:33:15;37.05;;;21.17;;
22652;SDS011;11493;43.344;26.226;2023-02-24T15:35:58;46.95;;;25.40;;
22652;SDS011;11493;43.344;26.226;2023-02-24T15:38:32;40.03;;;24.73;;
22652;SDS011;11493;43.344;26.226;2023-02-24T15:41:06;48.72;;;27.20;;
22652;SDS011;11493;43.344;26.226;2023-02-24T15:48:57;46.75;;;27.17;;
22652;SDS011;11493;43.344;26.226;2023-02-24T15:54:33;55.92;;;31.25;;
22652;SDS011;11493;43.344;26.226;2023-02-24T15:57:04;54.42;;;32.65;;
22652;SDS011;11493;43.344;26.226;2023-02-24T15:59:31;73.80;;;35.53;;
22652;SDS011;11493;43.344;26.226;2023-02-24T16:01:58;82.03;;;38.97;;
22652;SDS011;11493;43.344;26.226;2023-02-24T16:04:25;79.72;;;39.10;;
22652;SDS011;11493;43.344;26.226;2023-02-24T16:06:53;108.35;;;55.90;;
22652;SDS011;11493;43.344;26.226;2023-02-24T16:09:30;105.97;;;56.35;;
22652;SDS011;11493;43.344;26.226;2023-02-24T16:12:02;82.05;;;38.55;;
22652;SDS011;11493;43.344;26.226;2023-02-24T16:14:32;83.85;;;41.63;;
22652;SDS011;11493;43.344;26.226;2023-02-24T16:17:01;82.20;;;40.20;;
22652;SDS011;11493;43.344;26.226;2023-02-24T16:19:32;74.63;;;38.42;;
22652;SDS011;11493;43.344;26.226;2023-02-24T16:21:59;409.02;;;152.80;;
22652;SDS011;11493;43.344;26.226;2023-02-24T16:24:26;206.50;;;94.80;;
22652;SDS011;11493;43.344;26.226;2023-02-24T16:26:52;117.75;;;59.60;;
22652;SDS011;11493;43.344;26.226;2023-02-24T16:29:19;134.02;;;64.32;;
22652;SDS011;11493;43.344;26.226;2023-02-24T16:31:46;153.30;;;76.10;;
22652;SDS011;11493;43.344;26.226;2023-02-24T16:34:14;147.25;;;71.97;;
22652;SDS011;11493;43.344;26.226;2023-02-24T16:36:41;134.30;;;66.90;;
22652;SDS011;11493;43.344;26.226;2023-02-24T16:39:11;145.52;;;73.65;;
22652;SDS011;11493;43.344;26.226;2023-02-24T16:41:38;131.95;;;65.65;;
22652;SDS011;11493;43.344;26.226;2023-02-24T16:44:05;133.77;;;67.70;;
22652;SDS011;11493;43.344;26.226;2023-02-24T16:46:34;132.45;;;66.88;;
22652;SDS011;11493;43.344;26.226;2023-02-24T16:49:04;125.55;;;68.95;;
22652;SDS011;11493;43.344;26.226;2023-02-24T16:51:34;129.90;;;70.68;;
22652;SDS011;11493;43.344;26.226;2023-02-24T16:54:02;144.52;;;72.28;;
22652;SDS011;11493;43.344;26.226;2023-02-24T16:56:28;152.40;;;79.15;;
22652;SDS011;11493;43.344;26.226;2023-02-24T16:58:55;147.32;;;76.03;;
22652;SDS011;11493;43.344;26.226;2023-02-24T17:01:22;144.93;;;74.20;;
22652;SDS011;11493;43.344;26.226;2023-02-24T17:03:50;137.52;;;73.53;;
22652;SDS011;11493;43.344;26.226;2023-02-24T17:06:19;173.20;;;87.88;;
22652;SDS011;11493;43.344;26.226;2023-02-24T17:08:50;151.07;;;78.32;;
22652;SDS011;11493;43.344;26.226;2023-02-24T17:11:18;125.50;;;67.72;;
22652;SDS011;11493;43.344;26.226;2023-02-24T17:13:46;91.50;;;47.92;;
22652;SDS011;11493;43.344;26.226;2023-02-24T17:16:13;74.72;;;39.05;;
22652;SDS011;11493;43.344;26.226;2023-02-24T17:18:40;71.70;;;37.67;;
22652;SDS011;11493;43.344;26.226;2023-02-24T17:21:08;95.10;;;52.47;;
22652;SDS011;11493;43.344;26.226;2023-02-24T17:26:05;98.10;;;43.50;;
22652;SDS011;11493;43.344;26.226;2023-02-24T17:28:32;81.72;;;41.28;;
22652;SDS011;11493;43.344;26.226;2023-02-24T17:30:59;106.75;;;51.63;;
22652;SDS011;11493;43.344;26.226;2023-02-24T17:33:26;120.70;;;58.88;;
22652;SDS011;11493;43.344;26.226;2023-02-24T17:36:44;145.05;;;72.93;;
22652;SDS011;11493;43.344;26.226;2023-02-24T17:39:11;120.40;;;64.03;;
22652;SDS011;11493;43.344;26.226;2023-02-24T17:41:39;104.40;;;50.90;;
22652;SDS011;11493;43.344;26.226;2023-02-24T17:44:06;81.63;;;41.85;;
22652;SDS011;11493;43.344;26.226;2023-02-24T17:46:33;79.47;;;43.60;;
22652;SDS011;11493;43.344;26.226;2023-02-24T17:49:03;77.22;;;43.30;;
22652;SDS011;11493;43.344;26.226;2023-02-24T17:51:32;68.72;;;37.25;;
22652;SDS011;11493;43.344;26.226;2023-02-24T17:53:59;67.85;;;34.92;;
22652;SDS011;11493;43.344;26.226;2023-02-24T17:56:26;49.85;;;25.65;;
22652;SDS011;11493;43.344;26.226;2023-02-24T17:58:53;51.85;;;27.83;;
22652;SDS011;11493;43.344;26.226;2023-02-24T18:01:24;56.33;;;31.85;;